Time;durP1;ratioP1;P1;durP2;ratioP2;P2;SDS_P1;SDS_P2;PMS_P1;PMS_P2;Temp;Humidity;BMP_temperature;BMP_pressure;BME280_temperature;BME280_humidity;BME280_pressure;Samples;Min_cycle;Max_cycle;Signal;HPM_P1;HPM_P2
2021/01/12 00:00:00;;;;;;;4.35;2.13;;;;;;;25.09;36.81;98498.66;4952603;28;20226;-65
2021/01/12 00:02:26;;;;;;;5.70;3.47;;;;;;;25.04;34.30;98501.03;4951563;28;20278;-66
2021/01/12 00:04:53;;;;;;;2.47;1.55;;;;;;;25.02;35.48;98497.72;4952142;28;20394;-66
2021/01/12 00:07:20;;;;;;;4.32;2.72;;;;;;;24.97;35.65;98492.06;4952207;28;20215;-65
2021/01/12 00:09:46;;;;;;;4.35;2.50;;;;;;;24.97;35.68;98494.72;4950454;28;20321;-65
2021/01/12 00:12:13;;;;;;;2.95;2.10;;;;;;;24.92;35.99;98481.88;4955171;28;20619;-65
2021/01/12 00:14:39;;;;;;;4.57;1.90;;;;;;;24.89;36.78;98468.84;4955320;28;20349;-65
2021/01/12 00:17:07;;;;;;;2.17;1.45;;;;;;;24.98;35.49;98461.63;4954601;28;20294;-65
2021/01/12 00:19:34;;;;;;;2.42;1.80;;;;;;;24.89;35.86;98457.34;4954861;28;20583;-65
2021/01/12 00:22:01;;;;;;;4.28;1.98;;;;;;;24.85;35.80;98448.84;4955810;28;20210;-65
2021/01/12 00:24:27;;;;;;;6.05;2.38;;;;;;;24.90;35.51;98453.66;4936803;29;20703;-65
2021/01/12 00:26:53;;;;;;;3.30;2.13;;;;;;;24.80;35.98;98455.69;4942857;29;20199;-65
2021/01/12 00:29:20;;;;;;;2.92;1.58;;;;;;;24.73;37.34;98459.09;4954188;28;20678;-64
2021/01/12 00:31:47;;;;;;;2.55;1.75;;;;;;;24.77;35.93;98448.06;4955839;28;20286;-65
2021/01/12 00:34:14;;;;;;;4.18;2.72;;;;;;;24.71;35.17;98439.72;4953623;28;20203;-65
2021/01/12 00:36:46;;;;;;;2.90;1.60;;;;;;;24.70;36.81;98431.88;4955630;29;20214;-65
2021/01/12 00:39:13;;;;;;;2.60;2.00;;;;;;;24.67;36.16;98422.34;4955972;28;20317;-65
2021/01/12 00:41:39;;;;;;;5.88;1.63;;;;;;;24.71;36.65;98404.97;4954894;28;20545;-65
2021/01/12 00:44:06;;;;;;;3.92;1.95;;;;;;;24.69;37.00;98398.13;4952984;28;20207;-65
2021/01/12 00:46:34;;;;;;;3.35;1.70;;;;;;;24.73;35.96;98400.28;4953848;28;20203;-65
2021/01/12 00:49:00;;;;;;;4.18;2.22;;;;;;;24.66;36.44;98409.97;4954447;28;20222;-65
2021/01/12 00:51:37;;;;;;;2.72;2.08;;;;;;;24.60;36.06;98394.66;4953803;28;20242;-65
2021/01/12 00:54:05;;;;;;;2.17;1.70;;;;;;;24.59;37.27;98398.34;4956080;28;20202;-65
2021/01/12 00:56:32;;;;;;;3.55;1.77;;;;;;;24.52;35.92;98392.81;4954797;28;20218;-65
2021/01/12 00:58:58;;;;;;;3.35;1.55;;;;;;;24.50;36.74;98399.38;4954216;28;20698;-65
2021/01/12 01:01:24;;;;;;;2.58;1.95;;;;;;;24.57;36.65;98400.34;4954810;28;20312;-64
2021/01/12 01:03:51;;;;;;;5.47;2.42;;;;;;;24.38;35.97;98397.06;4954250;28;20649;-65
2021/01/12 01:06:17;;;;;;;3.47;2.20;;;;;;;24.41;36.78;98397.72;4952192;28;20229;-65
2021/01/12 01:08:43;;;;;;;2.55;1.70;;;;;;;24.37;37.21;98406.09;4954629;28;20321;-65
2021/01/12 01:11:09;;;;;;;2.88;1.92;;;;;;;24.30;36.05;98405.13;4953279;28;20202;-65
2021/01/12 01:13:35;;;;;;;2.83;2.03;;;;;;;24.25;35.66;98396.78;4954680;28;20201;-65
2021/01/12 01:16:02;;;;;;;2.60;1.50;;;;;;;24.33;37.35;98394.09;4953848;28;20515;-65
2021/01/12 01:18:28;;;;;;;2.72;1.83;;;;;;;24.29;36.11;98395.44;4953327;28;20202;-65
2021/01/12 01:20:55;;;;;;;6.47;2.03;;;;;;;24.24;37.24;98389.78;4954598;28;20245;-66
2021/01/12 01:23:21;;;;;;;3.10;1.88;;;;;;;24.24;37.33;98392.44;4952569;28;20298;-63
2021/01/12 01:25:47;;;;;;;4.35;1.67;;;;;;;24.33;37.59;98383.41;4954357;28;20225;-65
2021/01/12 01:28:13;;;;;;;3.78;2.10;;;;;;;24.26;37.53;98398.44;4953149;28;20298;-65
2021/01/12 01:30:39;;;;;;;2.40;1.70;;;;;;;24.27;36.64;98399.31;4945031;29;20199;-65
2021/01/12 01:33:05;;;;;;;1.95;1.65;;;;;;;24.31;37.30;98401.44;4954086;28;20221;-65
2021/01/12 01:35:32;;;;;;;4.38;1.65;;;;;;;24.29;36.96;98395.44;4953562;28;20211;-65
2021/01/12 01:37:59;;;;;;;2.78;1.98;;;;;;;24.23;36.14;98396.16;4952556;28;20217;-65
2021/01/12 01:40:25;;;;;;;2.70;1.80;;;;;;;24.20;37.56;98397.31;4953564;28;20219;-65
2021/01/12 01:42:52;;;;;;;2.60;1.80;;;;;;;24.26;37.62;98401.13;4952571;28;20195;-65
2021/01/12 01:45:18;;;;;;;3.90;1.70;;;;;;;24.24;36.61;98400.47;4952048;28;20199;-65
2021/01/12 01:47:45;;;;;;;2.97;2.00;;;;;;;24.26;37.21;98393.09;4952201;28;20218;-65
2021/01/12 01:50:14;;;;;;;3.45;1.80;;;;;;;24.35;37.41;98386.72;4953430;28;20655;-65
2021/01/12 01:52:41;;;;;;;2.05;1.50;;;;;;;24.43;36.90;98375.19;4954724;28;20553;-65
2021/01/12 01:55:09;;;;;;;4.10;1.95;;;;;;;24.37;36.74;98386.56;4954045;28;20571;-65
2021/01/12 01:57:35;;;;;;;2.80;1.85;;;;;;;24.32;37.08;98380.91;4953515;28;20710;-65
2021/01/12 02:00:04;;;;;;;4.53;2.17;;;;;;;24.35;36.33;98373.38;4953081;28;20222;-65
2021/01/12 02:02:30;;;;;;;1.80;1.45;;;;;;;24.36;36.73;98368.84;4946340;29;20761;-65
2021/01/12 02:05:02;;;;;;;2.88;1.50;;;;;;;24.39;36.65;98355.16;4952567;28;20293;-64
2021/01/12 02:07:30;;;;;;;3.58;1.98;;;;;;;24.30;36.30;98357.03;4938127;29;20202;-65
2021/01/12 02:09:59;;;;;;;3.40;1.60;;;;;;;24.36;37.23;98353.69;4941857;29;20218;-65
2021/01/12 02:12:32;;;;;;;3.00;1.42;;;;;;;24.37;37.34;98341.97;4953557;28;20624;-65
2021/01/12 02:14:59;;;;;;;3.33;1.63;;;;;;;24.35;36.79;98335.16;4953386;28;20199;-65
2021/01/12 02:17:27;;;;;;;4.38;1.80;;;;;;;24.32;37.32;98336.31;4952058;29;20222;-65
2021/01/12 02:19:54;;;;;;;2.05;1.65;;;;;;;24.24;36.71;98325.66;4951991;28;20259;-65
2021/01/12 02:22:22;;;;;;;5.30;1.55;;;;;;;24.25;36.99;98311.31;4952073;28;20621;-65
2021/01/12 02:24:50;;;;;;;1.92;1.60;;;;;;;24.30;36.71;98311.63;4952869;28;20299;-65
2021/01/12 02:27:20;;;;;;;1.83;1.20;;;;;;;24.29;36.93;98299.25;4953944;28;20207;-65
2021/01/12 02:29:46;;;;;;;1.88;1.30;;;;;;;24.31;37.32;98301.75;4952367;28;20238;-65
2021/01/12 02:32:14;;;;;;;2.60;1.40;;;;;;;24.28;36.79;98294.09;4952487;28;20278;-65
2021/01/12 02:34:43;;;;;;;3.78;1.63;;;;;;;24.32;36.46;98288.22;4951879;28;20706;-65
2021/01/12 02:37:10;;;;;;;2.63;1.30;;;;;;;24.27;36.87;98287.09;4952686;28;20217;-65
2021/01/12 02:39:36;;;;;;;3.08;1.30;;;;;;;24.33;37.39;98278.34;4952330;28;20285;-64
2021/01/12 02:42:14;;;;;;;4.18;2.05;;;;;;;24.28;36.30;98284.25;4952271;28;20203;-65
2021/01/12 02:44:40;;;;;;;2.72;1.27;;;;;;;24.36;37.55;98286.03;4952606;28;20237;-65
2021/01/12 02:47:06;;;;;;;2.47;1.25;;;;;;;24.40;37.45;98279.34;4952347;28;20649;-65
2021/01/12 02:49:32;;;;;;;2.65;1.23;;;;;;;24.42;37.88;98266.63;4953128;28;20239;-64
2021/01/12 02:51:58;;;;;;;5.15;2.03;;;;;;;24.38;37.54;98263.47;4951332;28;20199;-65
2021/01/12 02:54:25;;;;;;;2.28;1.30;;;;;;;24.43;36.08;98270.13;4952124;28;20582;-65
2021/01/12 02:56:52;;;;;;;4.05;1.85;;;;;;;24.35;37.56;98263.00;4952033;28;20580;-65
2021/01/12 02:59:18;;;;;;;1.70;1.25;;;;;;;24.39;37.90;98269.66;4951438;28;20222;-65
2021/01/12 03:01:45;;;;;;;1.98;1.33;;;;;;;24.37;37.45;98258.31;4951939;28;20205;-65
2021/01/12 03:04:11;;;;;;;6.20;1.42;;;;;;;24.36;37.58;98260.16;4952492;28;20617;-65
2021/01/12 03:06:37;;;;;;;1.63;1.15;;;;;;;24.39;37.29;98262.44;4952158;28;20204;-65
2021/01/12 03:09:04;;;;;;;2.60;1.50;;;;;;;24.52;36.97;98253.03;4951197;28;20226;-65
2021/01/12 03:11:30;;;;;;;5.13;1.50;;;;;;;24.55;35.92;98247.38;4951931;28;20213;-65
2021/01/12 03:13:57;;;;;;;2.58;1.40;;;;;;;24.66;35.64;98249.59;4951308;28;20203;-65
2021/01/12 03:16:24;;;;;;;2.13;1.45;;;;;;;24.62;35.45;98242.97;4951589;28;20207;-64
2021/01/12 03:18:50;;;;;;;2.85;1.35;;;;;;;24.65;35.42;98244.47;4950759;28;20566;-65
2021/01/12 03:21:17;;;;;;;1.75;1.10;;;;;;;24.74;35.27;98241.50;4950826;28;20210;-65
2021/01/12 03:23:43;;;;;;;1.55;1.15;;;;;;;24.72;35.47;98227.50;4951136;28;20551;-65
2021/01/12 03:26:09;;;;;;;3.00;1.30;;;;;;;24.70;35.53;98231.38;4951727;28;20586;-65
2021/01/12 03:28:35;;;;;;;1.73;1.08;;;;;;;24.72;36.33;98232.84;4952292;28;20329;-64
2021/01/12 03:31:01;;;;;;;1.38;1.17;;;;;;;24.70;36.23;98229.53;4951546;28;20627;-65
2021/01/12 03:33:28;;;;;;;1.73;1.13;;;;;;;24.63;35.73;98212.56;4952078;28;20207;-65
2021/01/12 03:35:54;;;;;;;2.03;1.30;;;;;;;24.65;35.67;98210.53;4941580;29;20217;-65
2021/01/12 03:38:20;;;;;;;2.75;1.45;;;;;;;24.63;36.06;98207.22;4951720;28;20199;-65
2021/01/12 03:40:46;;;;;;;2.85;1.33;;;;;;;24.63;36.78;98212.56;4951793;28;20206;-65
2021/01/12 03:43:13;;;;;;;2.72;1.33;;;;;;;24.60;36.58;98193.34;4951754;28;20217;-64
2021/01/12 03:45:39;;;;;;;1.50;1.17;;;;;;;24.67;36.73;98195.13;4952097;28;20582;-65
2021/01/12 03:48:06;;;;;;;2.53;1.20;;;;;;;24.67;36.38;98181.78;4954835;28;20226;-64
2021/01/12 03:50:33;;;;;;;2.28;1.40;;;;;;;24.58;36.15;98185.53;4955577;28;20326;-63
2021/01/12 03:52:59;;;;;;;1.92;1.00;;;;;;;24.56;36.44;98184.88;4956594;28;20203;-65
2021/01/12 03:55:25;;;;;;;1.45;1.20;;;;;;;24.59;36.61;98179.16;4953784;29;20206;-63
2021/01/12 03:57:51;;;;;;;1.63;1.30;;;;;;;24.55;36.74;98170.69;4954677;28;20329;-64
2021/01/12 04:00:18;;;;;;;2.10;1.23;;;;;;;24.56;36.63;98163.50;4955528;28;20325;-65
2021/01/12 04:02:44;;;;;;;2.35;1.40;;;;;;;24.58;36.78;98153.47;4953766;28;20202;-65
2021/01/12 04:05:10;;;;;;;1.10;0.80;;;;;;;24.57;36.34;98159.81;4955403;28;20199;-64
2021/01/12 04:07:37;;;;;;;5.38;1.35;;;;;;;24.50;36.06;98148.16;4955087;28;20262;-65
2021/01/12 04:10:05;;;;;;;2.90;1.40;;;;;;;24.52;36.57;98140.78;4945509;29;20232;-65
2021/01/12 04:12:31;;;;;;;2.50;1.08;;;;;;;24.55;36.10;98140.47;4955456;28;20195;-65
2021/01/12 04:14:57;;;;;;;2.00;1.10;;;;;;;24.50;36.81;98129.47;4954315;28;20582;-64
2021/01/12 04:17:23;;;;;;;1.65;0.90;;;;;;;24.50;36.44;98129.47;4953471;28;20229;-64
2021/01/12 04:19:49;;;;;;;1.10;1.00;;;;;;;24.45;35.98;98124.66;4954255;28;20229;-64
2021/01/12 04:22:15;;;;;;;1.75;1.15;;;;;;;24.47;36.03;98127.16;4953473;28;20582;-64
2021/01/12 04:24:42;;;;;;;1.35;1.05;;;;;;;24.51;36.13;98117.75;4954557;28;20199;-65
2021/01/12 04:27:08;;;;;;;2.20;1.42;;;;;;;24.50;36.76;98122.25;4953868;28;20380;-65
2021/01/12 04:29:34;;;;;;;2.47;1.10;;;;;;;24.51;36.67;98112.41;4954192;28;20226;-65
2021/01/12 04:32:00;;;;;;;1.33;1.10;;;;;;;24.46;36.00;98101.44;4954605;28;20243;-65
2021/01/12 04:34:26;;;;;;;1.40;1.20;;;;;;;24.54;36.88;98106.69;4954451;28;20635;-65
2021/01/12 04:36:53;;;;;;;1.65;1.10;;;;;;;24.48;36.48;98102.06;4954297;28;20202;-64
2021/01/12 04:39:19;;;;;;;2.30;1.08;;;;;;;24.45;36.61;98097.09;4952557;29;20215;-65
2021/01/12 04:41:46;;;;;;;1.52;1.00;;;;;;;24.42;36.57;98092.94;4954324;28;20209;-64
2021/01/12 04:44:12;;;;;;;1.20;1.00;;;;;;;24.43;37.63;98093.78;4953837;28;20308;-64
2021/01/12 04:46:39;;;;;;;2.28;1.05;;;;;;;24.52;36.58;98092.69;4954312;28;20277;-65
2021/01/12 04:49:05;;;;;;;1.00;0.90;;;;;;;24.61;36.12;98088.94;4953841;28;20284;-65
2021/01/12 04:51:31;;;;;;;0.85;0.80;;;;;;;24.71;36.85;98086.00;4954067;28;20199;-61
2021/01/12 04:53:57;;;;;;;3.42;1.20;;;;;;;24.74;36.33;98083.78;4952979;28;20286;-65
2021/01/12 04:56:24;;;;;;;1.73;1.13;;;;;;;24.77;36.34;98076.44;4953684;28;20249;-65
2021/01/12 04:58:52;;;;;;;1.38;0.90;;;;;;;24.81;36.42;98069.69;4952684;28;20586;-65
2021/01/12 05:01:21;;;;;;;1.58;0.95;;;;;;;24.89;35.84;98072.28;4953164;28;20674;-65
2021/01/12 05:03:49;;;;;;;1.77;1.10;;;;;;;24.89;36.12;98070.41;4955151;28;20207;-65
2021/01/12 05:06:16;;;;;;;1.27;1.00;;;;;;;24.92;36.60;98063.88;4953643;28;20677;-65
2021/01/12 05:08:43;;;;;;;2.63;1.00;;;;;;;24.97;36.24;98061.47;4954846;28;20227;-65
2021/01/12 05:11:11;;;;;;;1.70;0.90;;;;;;;25.00;35.90;98063.78;4953239;28;20538;-65
2021/01/12 05:13:42;;;;;;;2.28;0.93;;;;;;;25.02;36.30;98059.06;4950500;29;20221;-65
2021/01/12 05:16:11;;;;;;;2.60;1.25;;;;;;;25.02;36.62;98055.59;4953761;28;20540;-65
2021/01/12 05:18:39;;;;;;;2.08;1.00;;;;;;;25.00;35.59;98055.75;4954201;28;20219;-65
2021/01/12 05:21:07;;;;;;;1.77;1.02;;;;;;;25.07;36.13;98058.53;4953771;28;20202;-65
2021/01/12 05:23:47;;;;;;;1.08;0.93;;;;;;;25.06;35.40;98057.69;4953305;28;20658;-65
2021/01/12 05:26:16;;;;;;;2.38;1.10;;;;;;;25.11;35.36;98047.28;4953425;28;20206;-65
2021/01/12 05:28:43;;;;;;;2.25;1.33;;;;;;;25.12;35.79;98061.47;4953069;28;20739;-65
2021/01/12 05:31:11;;;;;;;2.17;1.20;;;;;;;25.14;35.70;98043.38;4953607;28;20802;-65
2021/01/12 05:33:40;;;;;;;1.05;0.88;;;;;;;25.17;35.76;98047.53;4953844;28;20210;-65
2021/01/12 05:36:07;;;;;;;1.63;0.88;;;;;;;25.17;35.26;98043.00;4952048;28;20242;-65
2021/01/12 05:38:33;;;;;;;1.70;1.10;;;;;;;25.11;35.95;98046.41;4952233;28;20322;-65
2021/01/12 05:41:02;;;;;;;3.65;1.02;;;;;;;25.15;35.92;98044.19;4954145;28;20194;-65
2021/01/12 05:43:33;;;;;;;1.40;1.00;;;;;;;25.18;35.06;98049.19;4953275;29;20213;-64
2021/01/12 05:46:06;;;;;;;2.42;1.35;;;;;;;25.18;36.22;98044.69;4942125;29;20195;-63
2021/01/12 05:48:36;;;;;;;1.42;0.93;;;;;;;25.19;35.34;98038.28;4952665;28;20222;-65
2021/01/12 05:51:05;;;;;;;1.58;1.00;;;;;;;25.22;35.35;98039.78;4953260;28;20195;-65
2021/01/12 05:53:48;;;;;;;1.25;0.80;;;;;;;25.24;35.61;98035.06;4953717;28;20207;-65
2021/01/12 05:56:20;;;;;;;0.90;0.70;;;;;;;25.25;35.68;98023.34;4954204;28;20217;-65
2021/01/12 05:58:48;;;;;;;1.15;1.05;;;;;;;25.25;35.97;98021.50;4953948;28;20222;-65
2021/01/12 06:01:24;;;;;;;1.25;0.80;;;;;;;25.26;35.36;98011.63;4953584;28;20403;-63
2021/01/12 06:03:52;;;;;;;1.20;0.93;;;;;;;25.29;35.50;98009.41;4953293;28;20656;-65
2021/01/12 06:06:19;;;;;;;1.10;0.98;;;;;;;25.17;35.30;98004.72;4953128;28;20207;-63
2021/01/12 06:08:49;;;;;;;0.93;0.80;;;;;;;25.10;35.51;98015.34;4952724;28;20230;-65
2021/01/12 06:11:18;;;;;;;1.00;0.90;;;;;;;25.05;35.27;98013.25;4952298;29;20679;-64
2021/01/12 06:13:53;;;;;;;1.70;1.10;;;;;;;25.12;34.90;97994.59;4952822;28;20207;-63
2021/01/12 06:16:23;;;;;;;1.02;0.88;;;;;;;25.21;33.85;97996.13;4953525;28;20244;-64
2021/01/12 06:19:06;;;;;;;1.75;1.30;;;;;;;25.08;34.36;98001.31;4953933;28;20221;-64
2021/01/12 06:21:35;;;;;;;1.65;1.05;;;;;;;25.10;34.44;98000.13;4953749;28;20207;-63
2021/01/12 06:24:09;;;;;;;3.42;1.33;;;;;;;25.22;35.04;97999.66;4952854;28;20202;-65
2021/01/12 06:26:36;;;;;;;12.40;1.65;;;;;;;25.21;35.66;98014.03;4952505;28;20217;-64
2021/01/12 06:29:05;;;;;;;24.98;3.63;;;;;;;24.98;35.54;98012.34;4951583;28;20223;-65
2021/01/12 06:31:31;;;;;;;16.88;3.40;;;;;;;24.99;36.19;97997.94;4952202;28;20570;-65
2021/01/12 06:33:58;;;;;;;25.83;3.10;;;;;;;24.94;35.32;98003.03;4953703;28;20365;-65
2021/01/12 06:36:26;;;;;;;17.63;2.78;;;;;;;24.81;37.23;97994.84;4962078;28;20249;-65
2021/01/12 06:38:53;;;;;;;30.77;3.15;;;;;;;24.77;37.56;97990.88;4953120;28;20223;-65
2021/01/12 06:41:21;;;;;;;15.65;2.65;;;;;;;24.82;36.88;97986.63;4950625;28;20210;-66
2021/01/12 06:43:49;;;;;;;40.55;2.42;;;;;;;25.01;36.30;97979.84;4952658;28;20203;-68
2021/01/12 06:46:17;;;;;;;14.57;3.00;;;;;;;25.38;35.97;97971.84;4953337;28;20206;-69
2021/01/12 06:48:44;;;;;;;14.95;2.22;;;;;;;25.44;36.42;97966.53;4952162;28;20259;-68
2021/01/12 06:51:13;;;;;;;12.52;2.58;;;;;;;25.49;36.04;97957.94;4952047;28;20685;-68
2021/01/12 06:53:45;;;;;;;14.63;2.22;;;;;;;25.54;35.30;97954.72;4950990;28;20241;-68
2021/01/12 06:56:12;;;;;;;21.08;2.55;;;;;;;25.58;35.56;97942.59;4951453;28;20658;-68
2021/01/12 06:58:45;;;;;;;17.65;2.58;;;;;;;25.23;35.65;97951.31;4951315;28;20307;-66
2021/01/12 07:01:21;;;;;;;14.90;2.15;;;;;;;25.10;36.15;97941.28;4952018;28;20302;-67
2021/01/12 07:03:50;;;;;;;13.23;2.42;;;;;;;25.22;37.00;97938.13;4951544;28;20353;-65
2021/01/12 07:06:25;;;;;;;11.85;1.95;;;;;;;25.15;36.72;97943.41;4952808;28;20203;-67
2021/01/12 07:08:54;;;;;;;8.98;2.30;;;;;;;25.20;36.70;97934.81;4952273;28;20226;-68
2021/01/12 07:11:21;;;;;;;11.80;2.22;;;;;;;25.27;37.04;97935.72;4952447;28;20211;-73
2021/01/12 07:13:47;;;;;;;11.25;2.20;;;;;;;25.23;38.01;97927.22;4943111;29;20314;-72
2021/01/12 07:16:14;;;;;;;9.30;2.20;;;;;;;25.32;37.56;97922.59;4951594;28;20662;-72
2021/01/12 07:18:43;;;;;;;9.05;2.13;;;;;;;25.41;37.26;97912.59;4950703;28;20269;-72
2021/01/12 07:21:13;;;;;;;10.43;2.33;;;;;;;25.30;38.23;97914.75;4950559;28;20217;-71
2021/01/12 07:23:41;;;;;;;11.40;2.35;;;;;;;25.45;36.90;97912.00;4952373;28;20206;-72
2021/01/12 07:26:08;;;;;;;5.95;1.45;;;;;;;25.72;36.16;97911.41;4951557;28;20199;-72
2021/01/12 07:28:44;;;;;;;28.50;2.38;;;;;;;27.13;34.51;97897.69;4951379;28;20222;-72
2021/01/12 07:31:10;;;;;;;7.80;1.70;;;;;;;26.73;34.45;97900.25;4951743;28;20576;-72
2021/01/12 07:33:36;;;;;;;8.73;1.77;;;;;;;27.17;33.86;97896.25;4951983;28;20253;-72
2021/01/12 07:36:04;;;;;;;5.38;1.60;;;;;;;26.79;34.06;97885.22;4951548;28;20206;-72
2021/01/12 07:38:31;;;;;;;9.45;1.90;;;;;;;27.04;33.33;97893.53;4950035;28;20254;-72
2021/01/12 07:41:00;;;;;;;8.10;1.73;;;;;;;26.30;34.38;97887.09;4951428;28;20206;-72
2021/01/12 07:43:28;;;;;;;6.60;1.95;;;;;;;25.60;34.96;97877.13;4951275;28;20274;-71
2021/01/12 07:45:55;;;;;;;10.20;2.17;;;;;;;25.45;35.21;97884.44;4950878;28;20198;-72
2021/01/12 07:48:22;;;;;;;8.57;2.28;;;;;;;25.43;36.06;97881.94;4951308;28;20314;-71
2021/01/12 07:50:50;;;;;;;5.20;1.73;;;;;;;25.55;35.93;97873.41;4951257;28;20623;-71
2021/01/12 07:53:17;;;;;;;5.05;1.58;;;;;;;25.60;35.67;97874.47;4951453;28;20310;-71
2021/01/12 07:55:45;;;;;;;3.55;1.52;;;;;;;25.60;35.31;97881.69;4951268;28;20209;-72
2021/01/12 07:58:14;;;;;;;5.05;1.48;;;;;;;25.49;35.07;97875.81;4951733;28;20261;-72
2021/01/12 08:00:41;;;;;;;5.93;1.60;;;;;;;25.46;35.28;97868.19;4936756;29;20198;-71
2021/01/12 08:03:08;;;;;;;11.85;1.80;;;;;;;25.34;34.85;97874.25;4951655;28;20292;-72
2021/01/12 08:05:34;;;;;;;4.40;1.85;;;;;;;25.32;35.27;97860.25;4950839;28;20238;-71
2021/01/12 08:08:01;;;;;;;4.50;1.80;;;;;;;25.02;35.81;97857.69;4950243;28;20647;-71
2021/01/12 08:10:27;;;;;;;4.97;1.65;;;;;;;25.00;35.72;97865.88;4951989;29;20677;-70
2021/01/12 08:13:06;;;;;;;11.27;1.98;;;;;;;25.01;36.69;97856.84;4952121;28;20710;-71
2021/01/12 08:15:35;;;;;;;5.32;1.45;;;;;;;24.98;36.81;97862.59;4950685;28;20199;-71
2021/01/12 08:18:04;;;;;;;6.63;1.40;;;;;;;24.99;37.31;97848.19;4951268;28;20199;-71
2021/01/12 08:20:31;;;;;;;6.10;1.60;;;;;;;25.10;36.35;97847.66;4951461;28;20219;-70
2021/01/12 08:22:58;;;;;;;6.53;1.60;;;;;;;25.31;36.18;97843.34;4949904;28;20203;-70
2021/01/12 08:25:25;;;;;;;7.50;1.88;;;;;;;25.29;36.61;97843.53;4951688;28;20203;-72
2021/01/12 08:27:52;;;;;;;4.75;1.50;;;;;;;25.47;36.78;97843.06;4950950;28;20234;-72
2021/01/12 08:30:20;;;;;;;7.28;2.00;;;;;;;25.59;36.70;97843.34;4952053;28;20263;-72
2021/01/12 08:32:56;;;;;;;6.85;1.77;;;;;;;25.61;35.75;97835.13;4951846;28;20199;-69
2021/01/12 08:35:26;;;;;;;9.10;1.70;;;;;;;25.70;36.84;97838.47;4954990;28;20202;-71
2021/01/12 08:37:53;;;;;;;10.65;1.60;;;;;;;25.61;36.83;97843.16;4955873;28;20728;-69
2021/01/12 08:40:20;;;;;;;18.33;2.03;;;;;;;25.49;35.95;97837.50;4955859;28;20241;-70
2021/01/12 08:42:48;;;;;;;11.18;2.28;;;;;;;25.55;37.31;97838.59;4951553;29;20210;-70
2021/01/12 08:45:16;;;;;;;8.75;1.45;;;;;;;25.54;37.17;97843.09;4952384;29;20222;-69
2021/01/12 08:47:45;;;;;;;6.03;1.20;;;;;;;25.43;36.79;97839.13;4955202;28;20262;-69
2021/01/12 08:50:13;;;;;;;4.13;1.48;;;;;;;25.57;36.31;97828.53;4955133;28;20674;-69
2021/01/12 08:52:44;;;;;;;4.57;1.27;;;;;;;25.76;36.14;97830.47;4954561;28;20211;-69
2021/01/12 08:55:18;;;;;;;6.05;1.45;;;;;;;25.82;35.93;97829.69;4954563;28;20199;-69
2021/01/12 08:57:54;;;;;;;5.57;1.45;;;;;;;25.74;37.02;97827.19;4954933;28;20207;-69
2021/01/12 09:00:27;;;;;;;7.55;1.50;;;;;;;25.68;37.52;97841.38;4954756;28;20249;-70
2021/01/12 09:02:54;;;;;;;4.45;1.65;;;;;;;25.67;36.59;97829.81;4955026;28;20211;-71
2021/01/12 09:05:21;;;;;;;4.80;1.50;;;;;;;25.71;36.32;97834.78;4954157;28;20384;-69
2021/01/12 09:07:47;;;;;;;8.40;1.50;;;;;;;25.71;36.02;97824.88;4954754;28;20257;-70
2021/01/12 09:10:14;;;;;;;3.17;1.30;;;;;;;25.73;36.97;97822.88;4954034;28;20237;-71
2021/01/12 09:12:41;;;;;;;5.72;1.50;;;;;;;27.41;34.58;97819.69;4951402;28;20194;-71
2021/01/12 09:15:07;;;;;;;6.13;1.30;;;;;;;26.26;35.61;97816.13;4954966;29;20316;-70
2021/01/12 09:17:34;;;;;;;7.68;1.60;;;;;;;25.98;36.78;97814.34;4954283;28;20447;-71
2021/01/12 09:20:00;;;;;;;4.90;1.23;;;;;;;25.82;35.93;97810.97;4954426;28;20270;-68
2021/01/12 09:22:30;;;;;;;5.75;1.20;;;;;;;25.85;35.83;97815.91;4953626;29;20202;-69
2021/01/12 09:24:58;;;;;;;4.40;1.13;;;;;;;26.13;35.63;97811.53;4954148;28;20341;-70
2021/01/12 09:27:27;;;;;;;2.50;1.10;;;;;;;26.67;35.25;97817.94;4953846;28;20241;-68
2021/01/12 09:29:54;;;;;;;2.05;0.90;;;;;;;26.12;35.60;97810.72;4951844;28;20274;-70
2021/01/12 09:32:28;;;;;;;4.88;1.10;;;;;;;26.10;35.49;97812.78;4952632;28;20207;-69
2021/01/12 09:34:55;;;;;;;3.10;1.02;;;;;;;26.12;34.98;97808.06;4952693;29;20509;-68
2021/01/12 09:37:21;;;;;;;6.97;1.50;;;;;;;26.11;36.28;97808.25;4953205;28;20579;-69
2021/01/12 09:39:53;;;;;;;3.55;1.10;;;;;;;26.17;35.84;97816.31;4953910;28;20225;-69
2021/01/12 09:42:21;;;;;;;4.70;1.08;;;;;;;26.13;36.37;97801.69;4954006;28;20360;-69
2021/01/12 09:44:48;;;;;;;4.18;0.90;;;;;;;26.19;36.00;97800.84;4952731;28;20199;-69
2021/01/12 09:47:14;;;;;;;2.47;0.90;;;;;;;26.14;35.64;97792.59;4966600;23;20241;-71
2021/01/12 09:49:41;;;;;;;2.95;0.80;;;;;;;26.08;36.61;97809.50;4989983;23;20602;-72
2021/01/12 09:52:07;;;;;;;1.33;1.00;;;;;;;25.90;35.93;97801.13;4964422;28;20209;-71
2021/01/12 09:54:34;;;;;;;2.70;1.10;;;;;;;26.00;35.66;97789.03;4971497;28;20641;-69
2021/01/12 09:57:03;;;;;;;1.67;1.02;;;;;;;26.08;36.16;97796.09;4973006;28;20210;-70
2021/01/12 09:59:29;;;;;;;5.57;0.93;;;;;;;26.07;36.35;97783.72;4973156;28;20218;-70
2021/01/12 10:01:56;;;;;;;3.47;0.70;;;;;;;25.91;35.70;97792.06;4971520;28;20226;-71
2021/01/12 10:04:22;;;;;;;2.88;1.02;;;;;;;25.90;36.76;97787.75;4970742;28;20226;-70
2021/01/12 10:06:54;;;;;;;5.43;1.02;;;;;;;26.05;35.68;97793.81;4971351;28;20673;-69
2021/01/12 10:09:20;;;;;;;1.98;0.85;;;;;;;26.07;36.32;97785.56;4972563;28;20328;-68
2021/01/12 10:11:47;;;;;;;5.07;0.90;;;;;;;26.03;36.42;97777.13;4972144;28;20262;-68
2021/01/12 10:14:14;;;;;;;3.28;0.70;;;;;;;25.94;36.82;97779.09;4972783;28;20237;-69
2021/01/12 10:16:40;;;;;;;11.73;0.90;;;;;;;26.07;35.64;97770.31;4970970;28;20221;-71
2021/01/12 10:19:07;;;;;;;3.00;0.80;;;;;;;26.09;36.31;97794.22;4969526;28;20229;-70
2021/01/12 10:21:34;;;;;;;2.67;0.70;;;;;;;26.00;36.50;97770.28;4971977;28;20210;-70
2021/01/12 10:24:02;;;;;;;1.83;0.80;;;;;;;26.03;36.09;97766.41;4970826;28;20293;-70
2021/01/12 10:26:29;;;;;;;3.45;0.70;;;;;;;25.91;36.46;97770.63;4977395;23;20261;-70
2021/01/12 10:28:57;;;;;;;4.03;1.08;;;;;;;26.19;35.96;97759.84;4960156;28;20226;-71
2021/01/12 10:31:25;;;;;;;3.70;1.27;;;;;;;26.32;36.14;97743.81;4969262;28;20217;-69
2021/01/12 10:33:52;;;;;;;6.07;1.40;;;;;;;26.42;35.49;97769.41;4971150;28;20210;-70
2021/01/12 10:36:20;;;;;;;3.40;0.90;;;;;;;26.37;35.84;97744.03;4970667;28;20294;-70
2021/01/12 10:38:47;;;;;;;3.95;0.60;;;;;;;26.31;35.30;97730.63;4972322;28;20598;-71
2021/01/12 10:41:14;;;;;;;3.28;0.90;;;;;;;26.34;35.64;97741.75;4973340;28;20613;-70
2021/01/12 10:43:40;;;;;;;7.07;1.85;;;;;;;26.38;35.44;97744.88;4968185;28;20210;-70
2021/01/12 10:46:07;;;;;;;3.03;0.98;;;;;;;26.30;35.87;97742.38;4968001;23;20739;-70
2021/01/12 10:48:34;;;;;;;4.25;0.70;;;;;;;26.16;35.77;97738.81;4964638;28;20238;-72
2021/01/12 10:51:01;;;;;;;2.45;0.90;;;;;;;26.22;36.26;97741.50;4955142;28;20310;-70
2021/01/12 10:53:27;;;;;;;2.05;0.60;;;;;;;26.32;35.66;97724.22;4952731;28;20269;-69
2021/01/12 10:55:56;;;;;;;1.95;0.80;;;;;;;26.27;36.26;97734.75;4952040;28;20195;-70
2021/01/12 10:58:22;;;;;;;7.95;0.90;;;;;;;26.09;35.48;97724.59;4953166;28;20218;-70
2021/01/12 11:00:49;;;;;;;3.53;0.70;;;;;;;25.96;36.46;97730.72;4968819;28;20206;-70
2021/01/12 11:03:16;;;;;;;4.38;0.75;;;;;;;25.97;35.89;97724.34;4969229;28;20655;-69
2021/01/12 11:05:43;;;;;;;5.45;0.50;;;;;;;25.97;35.77;97727.84;4969994;28;20237;-71
2021/01/12 11:08:09;;;;;;;5.70;1.08;;;;;;;26.16;35.61;97710.19;4967503;28;20265;-71
2021/01/12 11:10:35;;;;;;;3.90;0.70;;;;;;;26.36;36.07;97712.06;4970028;28;20226;-70
2021/01/12 11:13:03;;;;;;;3.00;0.60;;;;;;;26.51;35.50;97710.06;4970812;28;20381;-69
2021/01/12 11:15:29;;;;;;;1.35;0.75;;;;;;;26.29;35.90;97705.88;4970354;28;20268;-71
2021/01/12 11:17:56;;;;;;;2.30;0.55;;;;;;;26.26;36.49;97692.88;4971839;28;20654;-71
2021/01/12 11:20:22;;;;;;;1.25;0.50;;;;;;;26.35;36.40;97687.13;4970310;28;20233;-70
2021/01/12 11:22:49;;;;;;;1.38;0.60;;;;;;;26.45;35.63;97678.69;4969606;28;20265;-69
2021/01/12 11:25:16;;;;;;;1.05;0.50;;;;;;;26.53;35.32;97674.97;4967833;28;20215;-73
2021/01/12 11:27:42;;;;;;;1.20;0.65;;;;;;;26.51;36.09;97680.56;4950985;28;20214;-74
2021/01/12 11:30:10;;;;;;;1.70;0.65;;;;;;;26.49;36.01;97665.69;4951745;28;20341;-72
2021/01/12 11:32:39;;;;;;;2.85;0.70;;;;;;;26.59;35.73;97671.47;4952124;28;20242;-72